sensor_id;sensor_type;location;lat;lon;timestamp;temperature;humidity
15143;DHT22;7672;50.834;6.286;2022-12-29T00:00:04;13.40;99.90
15143;DHT22;7672;50.834;6.286;2022-12-29T00:02:32;13.40;99.90
15143;DHT22;7672;50.834;6.286;2022-12-29T00:04:59;13.40;99.90
15143;DHT22;7672;50.834;6.286;2022-12-29T00:07:26;13.40;99.90
15143;DHT22;7672;50.834;6.286;2022-12-29T00:09:53;13.40;99.90
15143;DHT22;7672;50.834;6.286;2022-12-29T00:12:19;13.40;99.90
15143;DHT22;7672;50.834;6.286;2022-12-29T00:14:46;13.40;99.90
15143;DHT22;7672;50.834;6.286;2022-12-29T00:17:45;13.40;99.90
15143;DHT22;7672;50.834;6.286;2022-12-29T00:20:12;13.40;99.90
15143;DHT22;7672;50.834;6.286;2022-12-29T00:22:57;13.40;99.90
15143;DHT22;7672;50.834;6.286;2022-12-29T00:25:43;13.50;99.90
15143;DHT22;7672;50.834;6.286;2022-12-29T00:28:33;13.50;99.90
15143;DHT22;7672;50.834;6.286;2022-12-29T00:31:19;13.50;99.90
15143;DHT22;7672;50.834;6.286;2022-12-29T00:34:04;13.60;99.90
15143;DHT22;7672;50.834;6.286;2022-12-29T00:36:52;13.60;99.90
15143;DHT22;7672;50.834;6.286;2022-12-29T00:39:19;13.60;99.90
15143;DHT22;7672;50.834;6.286;2022-12-29T00:42:05;13.60;99.90
15143;DHT22;7672;50.834;6.286;2022-12-29T00:44:53;13.60;99.90
15143;DHT22;7672;50.834;6.286;2022-12-29T00:47:20;13.60;99.90
15143;DHT22;7672;50.834;6.286;2022-12-29T00:49:46;13.60;99.90
15143;DHT22;7672;50.834;6.286;2022-12-29T00:52:13;13.60;99.90
15143;DHT22;7672;50.834;6.286;2022-12-29T00:54:40;13.50;99.90
15143;DHT22;7672;50.834;6.286;2022-12-29T00:57:09;13.50;99.90
15143;DHT22;7672;50.834;6.286;2022-12-29T00:59:37;13.50;99.90
15143;DHT22;7672;50.834;6.286;2022-12-29T01:02:06;13.40;99.90
15143;DHT22;7672;50.834;6.286;2022-12-29T01:04:34;13.50;99.90
15143;DHT22;7672;50.834;6.286;2022-12-29T01:07:01;13.40;99.90
15143;DHT22;7672;50.834;6.286;2022-12-29T01:09:28;13.40;99.90
15143;DHT22;7672;50.834;6.286;2022-12-29T01:12:13;13.40;99.90
15143;DHT22;7672;50.834;6.286;2022-12-29T01:14:40;13.40;99.90
15143;DHT22;7672;50.834;6.286;2022-12-29T01:17:07;13.40;99.90
15143;DHT22;7672;50.834;6.286;2022-12-29T01:19:34;13.40;99.90
15143;DHT22;7672;50.834;6.286;2022-12-29T01:22:01;13.50;99.90
15143;DHT22;7672;50.834;6.286;2022-12-29T01:24:28;13.60;99.90
15143;DHT22;7672;50.834;6.286;2022-12-29T01:26:54;13.50;99.90
15143;DHT22;7672;50.834;6.286;2022-12-29T01:29:22;13.50;99.90
15143;DHT22;7672;50.834;6.286;2022-12-29T01:31:49;13.50;99.90
15143;DHT22;7672;50.834;6.286;2022-12-29T01:34:17;13.50;99.90
15143;DHT22;7672;50.834;6.286;2022-12-29T01:36:44;13.50;99.90
15143;DHT22;7672;50.834;6.286;2022-12-29T01:39:11;13.80;99.90
15143;DHT22;7672;50.834;6.286;2022-12-29T01:41:39;13.50;99.90
15143;DHT22;7672;50.834;6.286;2022-12-29T01:47:50;13.50;99.90
15143;DHT22;7672;50.834;6.286;2022-12-29T01:58:11;13.50;99.90
15143;DHT22;7672;50.834;6.286;2022-12-29T02:09:55;13.50;99.90
15143;DHT22;7672;50.834;6.286;2022-12-29T02:13:10;13.90;99.90
15143;DHT22;7672;50.834;6.286;2022-12-29T02:31:09;13.70;99.90
15143;DHT22;7672;50.834;6.286;2022-12-29T02:35:01;13.70;99.90
15143;DHT22;7672;50.834;6.286;2022-12-29T02:44:15;13.80;99.90
15143;DHT22;7672;50.834;6.286;2022-12-29T02:47:30;13.80;99.90
15143;DHT22;7672;50.834;6.286;2022-12-29T02:50:14;14.20;99.90
15143;DHT22;7672;50.834;6.286;2022-12-29T02:52:58;14.10;99.90
15143;DHT22;7672;50.834;6.286;2022-12-29T02:55:27;13.90;99.90
15143;DHT22;7672;50.834;6.286;2022-12-29T02:58:17;14.20;99.90
15143;DHT22;7672;50.834;6.286;2022-12-29T03:16:48;13.80;99.90
15143;DHT22;7672;50.834;6.286;2022-12-29T03:19:32;13.80;99.90
15143;DHT22;7672;50.834;6.286;2022-12-29T03:22:10;13.90;99.90
15143;DHT22;7672;50.834;6.286;2022-12-29T03:25:01;13.90;99.90
15143;DHT22;7672;50.834;6.286;2022-12-29T03:27:40;13.80;99.90
15143;DHT22;7672;50.834;6.286;2022-12-29T03:30:11;13.80;99.90
15143;DHT22;7672;50.834;6.286;2022-12-29T03:32:46;13.90;99.90
15143;DHT22;7672;50.834;6.286;2022-12-29T03:35:20;13.90;99.90
15143;DHT22;7672;50.834;6.286;2022-12-29T03:37:59;13.90;99.90
15143;DHT22;7672;50.834;6.286;2022-12-29T03:40:33;13.90;99.90
15143;DHT22;7672;50.834;6.286;2022-12-29T03:43:02;13.90;99.90
15143;DHT22;7672;50.834;6.286;2022-12-29T03:45:30;13.90;99.90
15143;DHT22;7672;50.834;6.286;2022-12-29T03:47:57;13.90;99.90
15143;DHT22;7672;50.834;6.286;2022-12-29T03:50:24;13.90;99.90
15143;DHT22;7672;50.834;6.286;2022-12-29T03:52:51;13.90;99.90
15143;DHT22;7672;50.834;6.286;2022-12-29T03:55:18;13.90;99.90
15143;DHT22;7672;50.834;6.286;2022-12-29T03:57:44;13.90;99.90
15143;DHT22;7672;50.834;6.286;2022-12-29T04:00:12;13.90;99.90
15143;DHT22;7672;50.834;6.286;2022-12-29T04:02:39;13.90;99.90
15143;DHT22;7672;50.834;6.286;2022-12-29T04:05:06;13.90;99.90
15143;DHT22;7672;50.834;6.286;2022-12-29T04:07:35;13.90;99.90
15143;DHT22;7672;50.834;6.286;2022-12-29T04:10:02;13.80;99.90
15143;DHT22;7672;50.834;6.286;2022-12-29T04:12:29;13.80;99.90
15143;DHT22;7672;50.834;6.286;2022-12-29T04:14:56;13.90;99.90
15143;DHT22;7672;50.834;6.286;2022-12-29T04:17:22;13.80;99.90
15143;DHT22;7672;50.834;6.286;2022-12-29T04:19:50;13.80;99.90
15143;DHT22;7672;50.834;6.286;2022-12-29T04:22:17;13.90;99.90
15143;DHT22;7672;50.834;6.286;2022-12-29T04:24:44;13.90;99.90
15143;DHT22;7672;50.834;6.286;2022-12-29T04:27:11;13.90;99.90
15143;DHT22;7672;50.834;6.286;2022-12-29T04:29:37;13.90;99.90
15143;DHT22;7672;50.834;6.286;2022-12-29T04:32:04;14.10;99.90
15143;DHT22;7672;50.834;6.286;2022-12-29T04:34:31;14.00;99.90
15143;DHT22;7672;50.834;6.286;2022-12-29T04:36:58;14.00;99.90
15143;DHT22;7672;50.834;6.286;2022-12-29T04:39:24;14.20;99.90
15143;DHT22;7672;50.834;6.286;2022-12-29T04:41:51;14.00;99.90
15143;DHT22;7672;50.834;6.286;2022-12-29T04:44:18;14.00;99.90
15143;DHT22;7672;50.834;6.286;2022-12-29T04:46:45;14.00;99.90
15143;DHT22;7672;50.834;6.286;2022-12-29T04:49:11;14.00;99.90
15143;DHT22;7672;50.834;6.286;2022-12-29T04:51:39;14.00;99.90
15143;DHT22;7672;50.834;6.286;2022-12-29T04:54:06;14.10;99.90
15143;DHT22;7672;50.834;6.286;2022-12-29T04:56:33;14.00;99.90
15143;DHT22;7672;50.834;6.286;2022-12-29T04:58:59;14.10;99.90
15143;DHT22;7672;50.834;6.286;2022-12-29T05:01:26;14.00;99.90
15143;DHT22;7672;50.834;6.286;2022-12-29T05:03:53;14.20;99.90
15143;DHT22;7672;50.834;6.286;2022-12-29T05:06:20;14.00;99.90
15143;DHT22;7672;50.834;6.286;2022-12-29T05:08:47;14.00;99.90
15143;DHT22;7672;50.834;6.286;2022-12-29T05:11:13;14.00;99.90
15143;DHT22;7672;50.834;6.286;2022-12-29T05:13:40;14.00;99.90
15143;DHT22;7672;50.834;6.286;2022-12-29T05:16:07;13.90;99.90
15143;DHT22;7672;50.834;6.286;2022-12-29T05:18:34;13.90;99.90
15143;DHT22;7672;50.834;6.286;2022-12-29T05:21:01;13.90;99.90
15143;DHT22;7672;50.834;6.286;2022-12-29T05:23:28;13.90;99.90
15143;DHT22;7672;50.834;6.286;2022-12-29T05:25:54;13.90;99.90
15143;DHT22;7672;50.834;6.286;2022-12-29T05:28:21;13.80;99.90
15143;DHT22;7672;50.834;6.286;2022-12-29T05:30:50;13.90;99.90
15143;DHT22;7672;50.834;6.286;2022-12-29T05:33:18;13.80;99.90
15143;DHT22;7672;50.834;6.286;2022-12-29T05:35:45;13.90;99.90
15143;DHT22;7672;50.834;6.286;2022-12-29T05:38:12;13.80;99.90
15143;DHT22;7672;50.834;6.286;2022-12-29T05:40:39;13.80;99.90
15143;DHT22;7672;50.834;6.286;2022-12-29T05:43:06;13.80;99.90
15143;DHT22;7672;50.834;6.286;2022-12-29T05:45:33;13.80;99.90
15143;DHT22;7672;50.834;6.286;2022-12-29T05:48:00;13.80;99.90
15143;DHT22;7672;50.834;6.286;2022-12-29T05:50:27;13.70;99.90
15143;DHT22;7672;50.834;6.286;2022-12-29T05:52:53;13.70;99.90
15143;DHT22;7672;50.834;6.286;2022-12-29T05:55:20;13.70;99.90
15143;DHT22;7672;50.834;6.286;2022-12-29T05:57:47;13.80;99.90
15143;DHT22;7672;50.834;6.286;2022-12-29T06:00:14;13.70;99.90
15143;DHT22;7672;50.834;6.286;2022-12-29T06:02:42;13.70;99.90
15143;DHT22;7672;50.834;6.286;2022-12-29T06:05:09;13.70;99.90
15143;DHT22;7672;50.834;6.286;2022-12-29T06:07:36;14.10;99.90
15143;DHT22;7672;50.834;6.286;2022-12-29T06:10:04;13.70;99.90
15143;DHT22;7672;50.834;6.286;2022-12-29T06:12:32;13.70;99.90
15143;DHT22;7672;50.834;6.286;2022-12-29T06:14:58;13.70;99.90
15143;DHT22;7672;50.834;6.286;2022-12-29T06:17:25;13.70;99.90
15143;DHT22;7672;50.834;6.286;2022-12-29T06:19:52;13.70;99.90
15143;DHT22;7672;50.834;6.286;2022-12-29T06:22:19;13.80;99.90
15143;DHT22;7672;50.834;6.286;2022-12-29T06:24:45;13.70;99.90
15143;DHT22;7672;50.834;6.286;2022-12-29T06:27:12;13.60;99.90
15143;DHT22;7672;50.834;6.286;2022-12-29T06:29:40;13.70;99.90
15143;DHT22;7672;50.834;6.286;2022-12-29T06:32:07;13.60;99.90
15143;DHT22;7672;50.834;6.286;2022-12-29T06:34:34;13.70;99.90
15143;DHT22;7672;50.834;6.286;2022-12-29T06:37:01;13.60;99.90
15143;DHT22;7672;50.834;6.286;2022-12-29T06:39:28;13.70;99.90
15143;DHT22;7672;50.834;6.286;2022-12-29T06:41:54;13.70;99.90
15143;DHT22;7672;50.834;6.286;2022-12-29T06:44:22;13.80;99.90
15143;DHT22;7672;50.834;6.286;2022-12-29T06:46:49;13.70;99.90
15143;DHT22;7672;50.834;6.286;2022-12-29T06:49:17;13.70;99.90
15143;DHT22;7672;50.834;6.286;2022-12-29T06:51:44;13.70;99.90
15143;DHT22;7672;50.834;6.286;2022-12-29T06:54:12;13.70;99.90
15143;DHT22;7672;50.834;6.286;2022-12-29T06:56:39;13.70;99.90
15143;DHT22;7672;50.834;6.286;2022-12-29T06:59:06;13.80;99.90
15143;DHT22;7672;50.834;6.286;2022-12-29T07:01:33;13.70;99.90
15143;DHT22;7672;50.834;6.286;2022-12-29T07:04:03;13.70;99.90
15143;DHT22;7672;50.834;6.286;2022-12-29T07:06:30;13.70;99.90
15143;DHT22;7672;50.834;6.286;2022-12-29T07:08:57;13.70;99.90
15143;DHT22;7672;50.834;6.286;2022-12-29T07:11:24;13.80;99.90
15143;DHT22;7672;50.834;6.286;2022-12-29T07:13:51;13.80;99.90
15143;DHT22;7672;50.834;6.286;2022-12-29T07:16:18;13.70;99.90
15143;DHT22;7672;50.834;6.286;2022-12-29T07:18:45;13.60;99.90
15143;DHT22;7672;50.834;6.286;2022-12-29T07:21:12;13.60;99.90
15143;DHT22;7672;50.834;6.286;2022-12-29T07:23:39;14.00;99.90
15143;DHT22;7672;50.834;6.286;2022-12-29T07:26:08;13.60;99.90
15143;DHT22;7672;50.834;6.286;2022-12-29T07:28:37;13.60;99.90
15143;DHT22;7672;50.834;6.286;2022-12-29T07:31:05;13.60;99.90
15143;DHT22;7672;50.834;6.286;2022-12-29T07:33:36;13.60;99.90
15143;DHT22;7672;50.834;6.286;2022-12-29T07:36:04;13.70;99.90
15143;DHT22;7672;50.834;6.286;2022-12-29T07:38:32;13.60;99.90
15143;DHT22;7672;50.834;6.286;2022-12-29T07:40:58;13.70;99.90
15143;DHT22;7672;50.834;6.286;2022-12-29T07:43:25;13.60;99.90
15143;DHT22;7672;50.834;6.286;2022-12-29T07:45:52;13.60;99.90
15143;DHT22;7672;50.834;6.286;2022-12-29T07:48:20;13.60;99.90
15143;DHT22;7672;50.834;6.286;2022-12-29T07:50:46;13.80;99.90
15143;DHT22;7672;50.834;6.286;2022-12-29T07:53:13;13.60;99.90
15143;DHT22;7672;50.834;6.286;2022-12-29T07:55:41;13.60;99.90
15143;DHT22;7672;50.834;6.286;2022-12-29T07:58:11;13.50;99.90
15143;DHT22;7672;50.834;6.286;2022-12-29T08:00:39;13.50;99.90
15143;DHT22;7672;50.834;6.286;2022-12-29T08:03:09;13.50;99.90
15143;DHT22;7672;50.834;6.286;2022-12-29T08:05:35;13.40;99.90
15143;DHT22;7672;50.834;6.286;2022-12-29T08:08:03;13.50;99.90
15143;DHT22;7672;50.834;6.286;2022-12-29T08:10:29;13.40;99.90
15143;DHT22;7672;50.834;6.286;2022-12-29T08:12:57;13.40;99.90
15143;DHT22;7672;50.834;6.286;2022-12-29T08:15:24;13.80;99.90
15143;DHT22;7672;50.834;6.286;2022-12-29T08:17:57;13.40;99.90
15143;DHT22;7672;50.834;6.286;2022-12-29T08:20:24;13.40;99.90
15143;DHT22;7672;50.834;6.286;2022-12-29T08:22:51;13.70;99.90
15143;DHT22;7672;50.834;6.286;2022-12-29T08:25:27;13.50;99.90
15143;DHT22;7672;50.834;6.286;2022-12-29T08:27:54;13.30;99.90
15143;DHT22;7672;50.834;6.286;2022-12-29T08:30:26;13.30;99.90
15143;DHT22;7672;50.834;6.286;2022-12-29T08:32:57;13.30;99.90
15143;DHT22;7672;50.834;6.286;2022-12-29T08:35:24;13.70;99.90
15143;DHT22;7672;50.834;6.286;2022-12-29T08:37:51;13.40;99.90
15143;DHT22;7672;50.834;6.286;2022-12-29T08:40:18;13.40;99.90
15143;DHT22;7672;50.834;6.286;2022-12-29T08:42:44;13.30;99.90
15143;DHT22;7672;50.834;6.286;2022-12-29T08:45:11;13.50;99.90
15143;DHT22;7672;50.834;6.286;2022-12-29T08:47:38;13.50;99.90
15143;DHT22;7672;50.834;6.286;2022-12-29T08:50:05;13.70;99.90
15143;DHT22;7672;50.834;6.286;2022-12-29T08:52:33;13.80;99.90
15143;DHT22;7672;50.834;6.286;2022-12-29T08:55:05;14.00;99.90
15143;DHT22;7672;50.834;6.286;2022-12-29T08:57:43;14.20;99.90
15143;DHT22;7672;50.834;6.286;2022-12-29T09:00:10;14.50;99.90
15143;DHT22;7672;50.834;6.286;2022-12-29T09:03:01;14.70;99.90
15143;DHT22;7672;50.834;6.286;2022-12-29T09:05:34;14.90;99.90
15143;DHT22;7672;50.834;6.286;2022-12-29T09:08:18;15.10;99.90
15143;DHT22;7672;50.834;6.286;2022-12-29T09:10:54;15.30;99.90
15143;DHT22;7672;50.834;6.286;2022-12-29T09:13:24;15.70;99.90
15143;DHT22;7672;50.834;6.286;2022-12-29T09:16:09;15.90;99.90
15143;DHT22;7672;50.834;6.286;2022-12-29T09:18:47;16.20;99.90
15143;DHT22;7672;50.834;6.286;2022-12-29T09:21:30;16.50;99.90
15143;DHT22;7672;50.834;6.286;2022-12-29T09:24:03;16.90;99.90
15143;DHT22;7672;50.834;6.286;2022-12-29T09:26:32;16.90;99.90
15143;DHT22;7672;50.834;6.286;2022-12-29T09:29:15;16.90;99.90
15143;DHT22;7672;50.834;6.286;2022-12-29T09:32:06;17.20;99.90
15143;DHT22;7672;50.834;6.286;2022-12-29T09:34:41;17.60;99.90
15143;DHT22;7672;50.834;6.286;2022-12-29T09:37:10;17.50;99.90
15143;DHT22;7672;50.834;6.286;2022-12-29T09:39:49;17.70;99.90
15143;DHT22;7672;50.834;6.286;2022-12-29T09:42:45;17.80;99.90
15143;DHT22;7672;50.834;6.286;2022-12-29T09:45:52;18.10;99.90
15143;DHT22;7672;50.834;6.286;2022-12-29T09:48:41;18.20;99.90
15143;DHT22;7672;50.834;6.286;2022-12-29T09:55:02;18.30;99.90
15143;DHT22;7672;50.834;6.286;2022-12-29T09:58:29;18.20;99.90
15143;DHT22;7672;50.834;6.286;2022-12-29T10:04:11;18.00;99.90
15143;DHT22;7672;50.834;6.286;2022-12-29T10:10:50;17.80;99.90
15143;DHT22;7672;50.834;6.286;2022-12-29T10:13:59;18.10;99.90
15143;DHT22;7672;50.834;6.286;2022-12-29T10:17:13;17.00;99.90
15143;DHT22;7672;50.834;6.286;2022-12-29T10:26:30;16.70;99.90
15143;DHT22;7672;50.834;6.286;2022-12-29T10:29:26;16.60;99.90
15143;DHT22;7672;50.834;6.286;2022-12-29T10:32:00;16.60;99.90
15143;DHT22;7672;50.834;6.286;2022-12-29T10:34:37;16.30;99.90
15143;DHT22;7672;50.834;6.286;2022-12-29T10:37:25;16.20;99.90
15143;DHT22;7672;50.834;6.286;2022-12-29T10:40:09;16.20;99.90
15143;DHT22;7672;50.834;6.286;2022-12-29T10:42:46;16.30;99.90
15143;DHT22;7672;50.834;6.286;2022-12-29T10:45:19;16.40;99.90
15143;DHT22;7672;50.834;6.286;2022-12-29T10:48:03;16.50;99.90
15143;DHT22;7672;50.834;6.286;2022-12-29T10:50:36;16.70;99.90
15143;DHT22;7672;50.834;6.286;2022-12-29T10:53:19;17.40;99.90
15143;DHT22;7672;50.834;6.286;2022-12-29T10:55:49;17.40;99.90
15143;DHT22;7672;50.834;6.286;2022-12-29T10:58:18;17.70;99.90
15143;DHT22;7672;50.834;6.286;2022-12-29T11:00:59;18.30;99.90
15143;DHT22;7672;50.834;6.286;2022-12-29T11:07:24;18.20;99.90
15143;DHT22;7672;50.834;6.286;2022-12-29T11:09:54;18.90;99.90
15143;DHT22;7672;50.834;6.286;2022-12-29T11:12:29;19.10;99.90
15143;DHT22;7672;50.834;6.286;2022-12-29T11:15:16;19.20;99.90
15143;DHT22;7672;50.834;6.286;2022-12-29T11:17:56;19.30;99.90
15143;DHT22;7672;50.834;6.286;2022-12-29T11:20:38;19.30;99.90
15143;DHT22;7672;50.834;6.286;2022-12-29T11:23:23;19.10;99.90
15143;DHT22;7672;50.834;6.286;2022-12-29T11:26:21;18.90;99.90
15143;DHT22;7672;50.834;6.286;2022-12-29T11:31:50;18.50;99.90
15143;DHT22;7672;50.834;6.286;2022-12-29T11:34:31;18.30;99.90
15143;DHT22;7672;50.834;6.286;2022-12-29T11:42:40;17.40;99.90
15143;DHT22;7672;50.834;6.286;2022-12-29T11:45:40;17.20;99.90
15143;DHT22;7672;50.834;6.286;2022-12-29T11:48:19;16.90;99.90
15143;DHT22;7672;50.834;6.286;2022-12-29T11:50:55;16.60;99.90
15143;DHT22;7672;50.834;6.286;2022-12-29T11:53:49;16.40;99.90
15143;DHT22;7672;50.834;6.286;2022-12-29T11:56:21;16.20;99.90
15143;DHT22;7672;50.834;6.286;2022-12-29T12:00:13;16.00;99.90
15143;DHT22;7672;50.834;6.286;2022-12-29T12:05:17;15.60;99.90
15143;DHT22;7672;50.834;6.286;2022-12-29T12:08:19;15.50;99.90
15143;DHT22;7672;50.834;6.286;2022-12-29T12:11:33;15.40;99.90
15143;DHT22;7672;50.834;6.286;2022-12-29T12:17:53;15.40;99.90
15143;DHT22;7672;50.834;6.286;2022-12-29T12:25:24;15.50;99.90
15143;DHT22;7672;50.834;6.286;2022-12-29T12:28:48;15.60;99.90
15143;DHT22;7672;50.834;6.286;2022-12-29T12:31:56;15.80;99.90
15143;DHT22;7672;50.834;6.286;2022-12-29T13:00:07;15.40;99.90
15143;DHT22;7672;50.834;6.286;2022-12-29T13:17:43;14.90;99.90
15143;DHT22;7672;50.834;6.286;2022-12-29T13:20:41;14.90;99.90
15143;DHT22;7672;50.834;6.286;2022-12-29T13:23:20;14.70;99.90
15143;DHT22;7672;50.834;6.286;2022-12-29T13:28:56;14.60;99.90
15143;DHT22;7672;50.834;6.286;2022-12-29T13:32:02;14.60;99.90
15143;DHT22;7672;50.834;6.286;2022-12-29T13:35:02;14.50;99.90
15143;DHT22;7672;50.834;6.286;2022-12-29T13:37:58;14.50;99.90
15143;DHT22;7672;50.834;6.286;2022-12-29T13:40:32;14.50;99.90
15143;DHT22;7672;50.834;6.286;2022-12-29T13:43:02;14.50;99.90
15143;DHT22;7672;50.834;6.286;2022-12-29T13:45:31;14.50;99.90
15143;DHT22;7672;50.834;6.286;2022-12-29T13:48:19;14.50;99.90
15143;DHT22;7672;50.834;6.286;2022-12-29T13:50:58;14.40;99.90
15143;DHT22;7672;50.834;6.286;2022-12-29T13:53:42;14.30;99.90
15143;DHT22;7672;50.834;6.286;2022-12-29T13:56:38;14.30;99.90
15143;DHT22;7672;50.834;6.286;2022-12-29T14:05:03;14.20;99.90
15143;DHT22;7672;50.834;6.286;2022-12-29T14:07:38;14.20;99.90
15143;DHT22;7672;50.834;6.286;2022-12-29T14:10:06;14.10;99.90
15143;DHT22;7672;50.834;6.286;2022-12-29T14:13:03;14.10;99.90
15143;DHT22;7672;50.834;6.286;2022-12-29T14:15:56;14.10;99.90
15143;DHT22;7672;50.834;6.286;2022-12-29T14:18:30;14.00;99.90
15143;DHT22;7672;50.834;6.286;2022-12-29T14:21:10;14.30;99.90
15143;DHT22;7672;50.834;6.286;2022-12-29T14:23:48;14.00;99.90
15143;DHT22;7672;50.834;6.286;2022-12-29T14:28:56;13.90;99.90
15143;DHT22;7672;50.834;6.286;2022-12-29T14:31:43;13.90;99.90
15143;DHT22;7672;50.834;6.286;2022-12-29T14:45:07;13.70;99.90
15143;DHT22;7672;50.834;6.286;2022-12-29T14:47:53;13.70;99.90
15143;DHT22;7672;50.834;6.286;2022-12-29T14:50:29;13.70;99.90
15143;DHT22;7672;50.834;6.286;2022-12-29T14:52:55;13.60;99.90
15143;DHT22;7672;50.834;6.286;2022-12-29T14:58:53;13.60;99.90
15143;DHT22;7672;50.834;6.286;2022-12-29T15:01:49;13.60;99.90
15143;DHT22;7672;50.834;6.286;2022-12-29T15:04:22;13.50;99.90
15143;DHT22;7672;50.834;6.286;2022-12-29T15:06:51;13.50;99.90
15143;DHT22;7672;50.834;6.286;2022-12-29T15:09:29;13.50;99.90
15143;DHT22;7672;50.834;6.286;2022-12-29T15:15:25;13.40;99.90
15143;DHT22;7672;50.834;6.286;2022-12-29T15:17:53;13.30;99.90
15143;DHT22;7672;50.834;6.286;2022-12-29T15:20:28;13.30;99.90
15143;DHT22;7672;50.834;6.286;2022-12-29T15:23:03;13.30;99.90
15143;DHT22;7672;50.834;6.286;2022-12-29T15:25:41;13.20;99.90
15143;DHT22;7672;50.834;6.286;2022-12-29T15:28:16;13.20;99.90
15143;DHT22;7672;50.834;6.286;2022-12-29T15:30:54;13.30;99.90
15143;DHT22;7672;50.834;6.286;2022-12-29T15:33:29;13.00;99.90
15143;DHT22;7672;50.834;6.286;2022-12-29T15:36:02;13.00;99.90
15143;DHT22;7672;50.834;6.286;2022-12-29T15:38:30;12.90;99.90
15143;DHT22;7672;50.834;6.286;2022-12-29T15:44:14;12.80;99.90
15143;DHT22;7672;50.834;6.286;2022-12-29T15:46:47;12.70;99.90
15143;DHT22;7672;50.834;6.286;2022-12-29T15:49:14;12.70;99.90
15143;DHT22;7672;50.834;6.286;2022-12-29T15:51:41;12.70;99.90
15143;DHT22;7672;50.834;6.286;2022-12-29T15:54:18;12.60;99.90
15143;DHT22;7672;50.834;6.286;2022-12-29T15:56:48;12.50;99.90
15143;DHT22;7672;50.834;6.286;2022-12-29T15:59:27;12.50;99.90
15143;DHT22;7672;50.834;6.286;2022-12-29T16:01:58;12.40;99.90
15143;DHT22;7672;50.834;6.286;2022-12-29T16:04:30;12.30;99.90
15143;DHT22;7672;50.834;6.286;2022-12-29T16:07:33;12.30;99.90
15143;DHT22;7672;50.834;6.286;2022-12-29T16:13:04;12.20;99.90
15143;DHT22;7672;50.834;6.286;2022-12-29T16:15:40;12.20;99.90
15143;DHT22;7672;50.834;6.286;2022-12-29T16:18:22;12.20;99.90
15143;DHT22;7672;50.834;6.286;2022-12-29T16:20:52;12.10;99.90
15143;DHT22;7672;50.834;6.286;2022-12-29T16:23:24;12.10;99.90
15143;DHT22;7672;50.834;6.286;2022-12-29T16:25:55;12.10;99.90
15143;DHT22;7672;50.834;6.286;2022-12-29T16:28:44;12.00;99.90
15143;DHT22;7672;50.834;6.286;2022-12-29T16:31:23;12.00;99.90
15143;DHT22;7672;50.834;6.286;2022-12-29T16:33:58;12.00;99.90
15143;DHT22;7672;50.834;6.286;2022-12-29T16:36:51;12.00;99.90
15143;DHT22;7672;50.834;6.286;2022-12-29T16:39:49;11.90;99.90
15143;DHT22;7672;50.834;6.286;2022-12-29T16:42:35;11.90;99.90
15143;DHT22;7672;50.834;6.286;2022-12-29T16:48:16;11.80;99.90
15143;DHT22;7672;50.834;6.286;2022-12-29T16:50:46;11.70;99.90
15143;DHT22;7672;50.834;6.286;2022-12-29T16:53:29;11.80;99.90
15143;DHT22;7672;50.834;6.286;2022-12-29T16:56:13;11.70;99.90
15143;DHT22;7672;50.834;6.286;2022-12-29T16:58:47;11.70;99.90
15143;DHT22;7672;50.834;6.286;2022-12-29T17:01:15;11.70;99.90
15143;DHT22;7672;50.834;6.286;2022-12-29T17:03:52;11.60;99.90
15143;DHT22;7672;50.834;6.286;2022-12-29T17:06:22;11.60;99.90
15143;DHT22;7672;50.834;6.286;2022-12-29T17:08:50;11.60;99.90
15143;DHT22;7672;50.834;6.286;2022-12-29T17:11:22;11.60;99.90
15143;DHT22;7672;50.834;6.286;2022-12-29T17:17:13;11.50;99.90
15143;DHT22;7672;50.834;6.286;2022-12-29T17:19:47;11.50;99.90
15143;DHT22;7672;50.834;6.286;2022-12-29T17:22:20;11.50;99.90
15143;DHT22;7672;50.834;6.286;2022-12-29T17:24:55;11.40;99.90
15143;DHT22;7672;50.834;6.286;2022-12-29T17:27:45;11.40;99.90
15143;DHT22;7672;50.834;6.286;2022-12-29T17:30:17;11.40;99.90
15143;DHT22;7672;50.834;6.286;2022-12-29T17:32:57;11.40;99.90
15143;DHT22;7672;50.834;6.286;2022-12-29T17:35:27;11.40;99.90
15143;DHT22;7672;50.834;6.286;2022-12-29T17:37:54;11.40;99.90
15143;DHT22;7672;50.834;6.286;2022-12-29T17:40:24;11.40;99.90
15143;DHT22;7672;50.834;6.286;2022-12-29T17:42:55;11.40;99.90
15143;DHT22;7672;50.834;6.286;2022-12-29T17:45:26;11.40;99.90
15143;DHT22;7672;50.834;6.286;2022-12-29T17:47:58;11.40;99.90
15143;DHT22;7672;50.834;6.286;2022-12-29T17:50:29;11.40;99.90
15143;DHT22;7672;50.834;6.286;2022-12-29T17:52:59;11.40;99.90
15143;DHT22;7672;50.834;6.286;2022-12-29T17:55:29;11.40;99.90
15143;DHT22;7672;50.834;6.286;2022-12-29T17:58:23;11.50;99.90
15143;DHT22;7672;50.834;6.286;2022-12-29T18:00:54;11.40;99.90
15143;DHT22;7672;50.834;6.286;2022-12-29T18:03:28;11.40;99.90
15143;DHT22;7672;50.834;6.286;2022-12-29T18:05:57;11.40;99.90
15143;DHT22;7672;50.834;6.286;2022-12-29T18:08:24;11.20;99.90
15143;DHT22;7672;50.834;6.286;2022-12-29T18:10:52;11.30;99.90
15143;DHT22;7672;50.834;6.286;2022-12-29T18:13:22;11.20;99.90
15143;DHT22;7672;50.834;6.286;2022-12-29T18:15:54;11.10;99.90
15143;DHT22;7672;50.834;6.286;2022-12-29T18:18:24;11.10;99.90
15143;DHT22;7672;50.834;6.286;2022-12-29T18:21:01;11.10;99.90
15143;DHT22;7672;50.834;6.286;2022-12-29T18:24:08;11.10;99.90
15143;DHT22;7672;50.834;6.286;2022-12-29T18:28:14;10.90;99.90
15143;DHT22;7672;50.834;6.286;2022-12-29T18:30:45;11.30;99.90
15143;DHT22;7672;50.834;6.286;2022-12-29T18:33:18;10.40;99.90
15143;DHT22;7672;50.834;6.286;2022-12-29T18:38:54;10.70;99.90
15143;DHT22;7672;50.834;6.286;2022-12-29T18:49:42;10.60;99.90
15143;DHT22;7672;50.834;6.286;2022-12-29T18:56:50;10.40;99.90
15143;DHT22;7672;50.834;6.286;2022-12-29T19:03:34;10.50;99.90
15143;DHT22;7672;50.834;6.286;2022-12-29T19:06:36;10.40;99.90
15143;DHT22;7672;50.834;6.286;2022-12-29T19:09:33;10.60;99.90
15143;DHT22;7672;50.834;6.286;2022-12-29T19:13:09;9.80;99.90
15143;DHT22;7672;50.834;6.286;2022-12-29T19:15:57;10.50;99.90
15143;DHT22;7672;50.834;6.286;2022-12-29T19:18:29;10.30;99.90
15143;DHT22;7672;50.834;6.286;2022-12-29T19:21:18;9.90;99.90
15143;DHT22;7672;50.834;6.286;2022-12-29T19:24:13;10.40;99.90
15143;DHT22;7672;50.834;6.286;2022-12-29T19:27:28;10.20;99.90
15143;DHT22;7672;50.834;6.286;2022-12-29T19:30:11;10.10;99.90
15143;DHT22;7672;50.834;6.286;2022-12-29T19:32:50;10.10;99.90
15143;DHT22;7672;50.834;6.286;2022-12-29T19:35:20;10.10;99.90
15143;DHT22;7672;50.834;6.286;2022-12-29T19:37:48;10.40;99.90
15143;DHT22;7672;50.834;6.286;2022-12-29T19:40:20;10.00;99.90
15143;DHT22;7672;50.834;6.286;2022-12-29T19:42:49;10.00;99.90
15143;DHT22;7672;50.834;6.286;2022-12-29T19:45:17;10.00;99.90
15143;DHT22;7672;50.834;6.286;2022-12-29T19:48:03;10.00;99.90
15143;DHT22;7672;50.834;6.286;2022-12-29T19:50:40;10.00;99.90
15143;DHT22;7672;50.834;6.286;2022-12-29T19:53:08;10.20;99.90
15143;DHT22;7672;50.834;6.286;2022-12-29T19:55:52;10.30;99.90
15143;DHT22;7672;50.834;6.286;2022-12-29T19:58:28;9.90;99.90
15143;DHT22;7672;50.834;6.286;2022-12-29T20:01:21;9.90;99.90